Arlington, DC

9:14 PM EDT on August 22, 2014 (GMT -0400)
Washington | Change Station
CLOSE
Current Station
Airport
Location: Washington,
Elevation: 13 ft
Nearby Weather Stations

Elev 13 ft 38.85 °N, 77.03 °W | Updated 10 minutes ago

Mostly Cloudy
Mostly Cloudy
79 °F
Feels Like 79 °F
N
7
Wind Variable Wind from East

Today
High -- | Low -- °F
--% Chance of Precip.
Yesterday
High -- | Low -- °F
Precip. -- in
6:28 AM 7:53 PM
Waning Crescent, 6% visible
Pressure 29.99 in
Visibility 10.0 miles
Clouds Mostly Cloudy 1800 ft
Mostly Cloudy 25000 ft
Dew Point 70 °F
Humidity 74%
Rainfall 0.00 in
Snow Depth Not available.
UV 0 out of 12
Pollen 8.60 out of 12
Air Quality Not available.
Flu Activity Not available.
SPECI KDCA 230104Z 09006KT 10SM BKN018 BKN250 26/21 A2999 RMK AO2

More Conditions Fewer Conditions

Pressure 29.99 in
Visibility 10.0 miles
Clouds Mostly Cloudy 1800 ft
Mostly Cloudy 25000 ft
Dew Point 70 °F
Humidity 74%
Rainfall 0.00 in
Snow Depth Not available.
UV 0 out of 12
Pollen 8.60 out of 12
Air Quality Not available.
Flu Activity Not available.
SPECI KDCA 230104Z 09006KT 10SM BKN018 BKN250 26/21 A2999 RMK AO2

More Conditions Fewer Conditions

10-Day Weather Forecast

Almanac

Astronomy

Aug. 22, 2014 Rise Set
Actual Time 6:28 AM EDT 7:53 PM EDT
Civil Twilight 6:00 AM EDT 8:21 PM EDT
Nautical Twilight 5:26 AM EDT 8:54 PM EDT
Astronomical Twilight 4:51 AM EDT 9:29 PM EDT
Moon 3:49 AM EDT (8/22) 5:59 PM EDT (8/22)
Length of Visible Light 14h 20m
Length of Day
13h 25m
Tomorrow will be 2m 19s shorter.
Waning Crescent, 6% of the Moon is Illuminated
Today
Waning Crescent
Aug 25
New
Sep 2
First Quarter
Sep 8
Full
Sep 15
Last Quarter

Today's Extremes

State Highs State Lows

Community

WunderPhotos

Upload Photos

1,746,337 photos uploaded!

WunderBlogs® & News

Nearby

Snow Depth

Station Depth Elevation
No new snow has been reported.

Earthquake Activity

City Distance Mag. Time & Date
No recent earthquake activity has been reported nearby.
Minimum magnitude displayed is 2.5.

Coastal Water Temperatures

Place Temperature
Washington, DC 79.0 °F
Baltimore, MD 82.0 °F
Solomons Island, MD 80.1 °F

Nearby Weather Stations